M I D A S
Marine Information and Data Acquisition System
Tripno 1714 of the Zeeleeuw from 2009-06-23 06:43:27 to 2009-06-23 14:36:06
Back to CruiseResearch ActivitiesStationsMapUnderway DataData graphs

EquipmentUnitsComment
TimeDGPSUTC
LatitudeDGPSDM.mWGS84
LongitudeDGPSDM.mWGS84
HeadingGyrodeg 
SOGDGPSknotsSpeed over ground
COGDGPSdegCourse over ground
DepthEcho soundermeters200 kHz
Missing or incorrect values are displayed as -999
Navigation data collected by the RV Zeeleeuw from 2009-06-23 06:50:02 to 2009-06-23 14:40:53
                                                                                    Next 1000 lines
Time Latitude Longitude Heading SOG COG Depth
2009-06-23 06:50:12 51°13.662 2°55.958 125 0.1 136 -999
2009-06-23 06:50:17 51°13.663 2°55.959 125 0.1 140 -999
2009-06-23 06:50:22 51°13.663 2°55.96 124.9 0.1 136 -999
2009-06-23 06:50:27 51°13.662 2°55.959 124.9 0.2 133 -999
2009-06-23 06:50:32 51°13.662 2°55.959 124.9 0.2 129 -999
2009-06-23 06:50:37 51°13.661 2°55.959 124.9 0.2 134 -999
2009-06-23 06:50:42 51°13.661 2°55.959 124.9 0.2 128 -999
2009-06-23 06:50:47 51°13.661 2°55.959 124.9 0.2 139 -999
2009-06-23 06:50:52 51°13.661 2°55.959 124.9 0.2 142 4.6
2009-06-23 06:50:57 51°13.661 2°55.96 124.9 0.1 129 -999
2009-06-23 06:51:02 51°13.663 2°55.962 124.9 -999 126 -999
2009-06-23 06:51:07 51°13.662 2°55.961 124.8 -999 166 -999
2009-06-23 06:51:12 51°13.662 2°55.96 124.6 -999 141 -999
2009-06-23 06:51:17 51°13.661 2°55.959 124.6 -999 186 -999
2009-06-23 06:51:22 51°13.662 2°55.96 124.6 -999 174 -999
2009-06-23 06:51:27 51°13.662 2°55.96 124.6 -999 160 4.5
2009-06-23 06:51:32 51°13.662 2°55.959 124.6 -999 193 -999
2009-06-23 06:51:37 51°13.662 2°55.959 124.6 -999 187 -999
2009-06-23 06:51:42 51°13.661 2°55.959 124.6 -999 123 -999
2009-06-23 06:51:47 51°13.662 2°55.959 124.6 -999 311 -999
2009-06-23 06:51:52 51°13.662 2°55.958 124.6 0.2 294 -999
2009-06-23 06:51:57 51°13.662 2°55.957 124.8 0.4 290 -999
2009-06-23 06:52:02 51°13.662 2°55.957 124.4 0.3 310 -999
2009-06-23 06:52:07 51°13.662 2°55.956 123.5 0.3 287 4.5
2009-06-23 06:52:12 51°13.663 2°55.956 123.3 0.4 298 4.6
2009-06-23 06:52:16 51°13.663 2°55.955 122.9 0.4 294 4.5
2009-06-23 06:52:22 51°13.663 2°55.953 122.5 0.4 296 4.6
2009-06-23 06:52:27 51°13.664 2°55.953 122.1 0.5 298 -999
2009-06-23 06:52:32 51°13.664 2°55.951 121.7 0.5 296 4.7
2009-06-23 06:52:37 51°13.665 2°55.95 121.3 0.6 298 -999
2009-06-23 06:52:42 51°13.665 2°55.949 121 0.6 299 -999
2009-06-23 06:52:47 51°13.665 2°55.948 120.7 0.7 300 -999
2009-06-23 06:52:52 51°13.666 2°55.947 120.5 0.7 300 -999
2009-06-23 06:52:57 51°13.667 2°55.945 120.3 1 297 -999
2009-06-23 06:53:02 51°13.668 2°55.943 119.8 1.1 303 -999
2009-06-23 06:53:07 51°13.669 2°55.941 119.1 1.2 296 -999
2009-06-23 06:53:12 51°13.67 2°55.938 118.7 1.3 303 -999
2009-06-23 06:53:17 51°13.67 2°55.935 118.4 1.5 298 -999
2009-06-23 06:53:22 51°13.671 2°55.932 118.4 1.7 299 -999
2009-06-23 06:53:27 51°13.673 2°55.928 118.4 2 297 -999
2009-06-23 06:53:32 51°13.674 2°55.924 118.4 2.1 299 -999
2009-06-23 06:53:37 51°13.676 2°55.919 118.4 2.3 300 -999
2009-06-23 06:53:42 51°13.677 2°55.915 118.4 2.5 300 -999
2009-06-23 06:53:47 51°13.679 2°55.91 118.5 2.6 301 -999
2009-06-23 06:53:52 51°13.681 2°55.905 118.5 2.7 301 -999
2009-06-23 06:53:57 51°13.684 2°55.899 118.6 2.9 304 -999
2009-06-23 06:54:02 51°13.686 2°55.894 118.8 3 301 -999
2009-06-23 06:54:07 51°13.688 2°55.888 117.7 3.1 300 -999
2009-06-23 06:54:12 51°13.69 2°55.882 115.7 3.1 295 -999
2009-06-23 06:54:17 51°13.692 2°55.875 112.5 3.2 292 -999
2009-06-23 06:54:22 51°13.693 2°55.869 109 3.3 287 -999
2009-06-23 06:54:27 51°13.695 2°55.862 105 3.3 284 -999
2009-06-23 06:54:32 51°13.695 2°55.854 102.8 3.3 282 -999
2009-06-23 06:54:37 51°13.696 2°55.847 100.8 3.4 280 -999
2009-06-23 06:54:42 51°13.697 2°55.84 99.3 3.4 279 -999
2009-06-23 06:54:47 51°13.698 2°55.832 98 3.4 278 -999
2009-06-23 06:54:52 51°13.698 2°55.825 97.2 3.5 278 -999
2009-06-23 06:54:57 51°13.699 2°55.817 96.2 3.6 277 -999
2009-06-23 06:55:02 51°13.699 2°55.809 95.2 3.5 276 -999
2009-06-23 06:55:07 51°13.7 2°55.802 93.7 3.3 276 -999
2009-06-23 06:55:12 51°13.7 2°55.795 92.6 3.2 275 -999
2009-06-23 06:55:17 51°13.7 2°55.788 91.6 3 274 -999
2009-06-23 06:55:22 51°13.701 2°55.781 90.5 2.9 273 -999
2009-06-23 06:55:27 51°13.701 2°55.775 89.2 2.8 272 -999
2009-06-23 06:55:32 51°13.701 2°55.769 88.3 2.7 271 10.1
2009-06-23 06:55:36 51°13.701 2°55.765 87.4 2.6 271 10.6
2009-06-23 06:55:41 51°13.701 2°55.759 86.5 2.5 269 11.4
2009-06-23 06:55:46 51°13.701 2°55.754 85.7 2.3 268 11.4
2009-06-23 06:55:51 51°13.701 2°55.749 84.5 2 267 11.6
2009-06-23 06:55:56 51°13.701 2°55.745 83.1 1.8 268 11.3
2009-06-23 06:56:00 51°13.7 2°55.743 81.3 1.6 267 11
2009-06-23 06:56:06 51°13.7 2°55.739 79.3 1.1 271 11
2009-06-23 06:56:11 51°13.701 2°55.738 77.4 0.6 281 11.1
2009-06-23 06:56:15 51°13.701 2°55.738 73.9 0.3 333 11.1
2009-06-23 06:56:20 51°13.702 2°55.738 69.7 0.5 17 10.9
2009-06-23 06:56:25 51°13.703 2°55.739 64.2 0.7 34 10.7
2009-06-23 06:56:30 51°13.704 2°55.74 59.6 0.8 33 10.7
2009-06-23 06:56:35 51°13.705 2°55.742 52.9 1 36 10.8
2009-06-23 06:56:40 51°13.706 2°55.743 47.6 1 32 11
2009-06-23 06:56:44 51°13.707 2°55.743 42.9 0.9 29 11.2
2009-06-23 06:56:49 51°13.708 2°55.744 40.2 0.8 25 11.4
2009-06-23 06:56:54 51°13.709 2°55.745 37.1 0.6 25 11.6
2009-06-23 06:56:59 51°13.709 2°55.745 34.6 0.4 7 11.7
2009-06-23 06:57:04 51°13.709 2°55.745 32 0.2 353 11.6
2009-06-23 06:57:08 51°13.709 2°55.745 29.7 0.2 275 11.5
2009-06-23 06:57:13 51°13.709 2°55.744 27.5 0.3 230 11.4
2009-06-23 06:57:18 51°13.709 2°55.743 25.5 0.4 226 11.3
2009-06-23 06:57:24 51°13.708 2°55.743 23.7 0.4 220 11.3
2009-06-23 06:57:28 51°13.708 2°55.742 22.3 0.4 228 11.3
2009-06-23 06:57:33 51°13.708 2°55.742 20.8 0.2 241 11.4
2009-06-23 06:57:38 51°13.708 2°55.741 18.8 0.2 303 11.4
2009-06-23 06:57:44 51°13.709 2°55.741 16.1 0.3 340 11.4
2009-06-23 06:57:48 51°13.709 2°55.74 12.8 0.5 339 11.5
2009-06-23 06:57:53 51°13.71 2°55.74 9.1 0.8 351 11.3
2009-06-23 06:57:58 51°13.712 2°55.739 4.7 1 346 11
2009-06-23 06:58:03 51°13.713 2°55.739 359.7 1.2 349 10.7
2009-06-23 06:58:08 51°13.715 2°55.738 354.4 1.3 342 10.9
2009-06-23 06:58:13 51°13.717 2°55.737 349.3 1.4 342 10.9
2009-06-23 06:58:18 51°13.719 2°55.736 345.4 1.6 336 10.7
2009-06-23 06:58:23 51°13.721 2°55.734 340.3 1.8 335 10.5
2009-06-23 06:58:28 51°13.723 2°55.732 337 2.1 333 10.5
2009-06-23 06:58:33 51°13.726 2°55.73 334.6 2.4 331 10.3
2009-06-23 06:58:38 51°13.729 2°55.727 333.2 2.8 330 10.1
2009-06-23 06:58:44 51°13.734 2°55.723 331.9 3.2 330 10.2
2009-06-23 06:58:48 51°13.737 2°55.719 331.8 3.5 330 10
2009-06-23 06:58:54 51°13.743 2°55.715 331.8 3.9 330 9.7
2009-06-23 06:58:58 51°13.747 2°55.711 332.1 4.2 330 9.3
2009-06-23 06:59:03 51°13.752 2°55.706 332.3 4.4 329 9
2009-06-23 06:59:08 51°13.758 2°55.701 332.3 4.7 329 9.2
2009-06-23 06:59:12 51°13.763 2°55.697 331.8 4.9 329 8.6
2009-06-23 06:59:19 51°13.771 2°55.688 331.2 5.1 329 8.4
2009-06-23 06:59:23 51°13.776 2°55.683 331 5.3 329 8.8
2009-06-23 06:59:28 51°13.783 2°55.677 331 5.4 329 8.4
2009-06-23 06:59:33 51°13.789 2°55.671 331.4 5.6 330 8.7
2009-06-23 06:59:38 51°13.796 2°55.665 332.3 5.7 331 8.8
2009-06-23 06:59:43 51°13.803 2°55.659 333.7 5.8 332 9
2009-06-23 06:59:48 51°13.811 2°55.653 334.4 5.9 332 9.1
2009-06-23 06:59:54 51°13.82 2°55.646 334.6 6 332 9
2009-06-23 06:59:58 51°13.826 2°55.641 334.7 6.1 333 8.9
2009-06-23 07:00:03 51°13.833 2°55.635 335 6.2 333 8.5
2009-06-23 07:00:08 51°13.841 2°55.629 335.1 6.2 333 9
2009-06-23 07:00:13 51°13.849 2°55.622 335.1 6.3 333 8.9
2009-06-23 07:00:18 51°13.857 2°55.616 335 6.4 333 9
2009-06-23 07:00:23 51°13.865 2°55.61 335.4 6.4 334 9.1
2009-06-23 07:00:28 51°13.873 2°55.603 335.8 6.5 333 9
2009-06-23 07:00:33 51°13.882 2°55.596 335.9 6.5 334 9.3
2009-06-23 07:00:38 51°13.89 2°55.589 335.9 6.6 333 9.3
2009-06-23 07:00:43 51°13.898 2°55.583 335.6 6.6 333 9.3
2009-06-23 07:00:48 51°13.906 2°55.576 335.6 6.6 333 9.3
2009-06-23 07:00:53 51°13.914 2°55.57 336.2 6.6 334 9.3
2009-06-23 07:00:59 51°13.924 2°55.563 336.8 6.7 334 9.2
2009-06-23 07:01:03 51°13.931 2°55.558 336.9 6.7 334 9.2
2009-06-23 07:01:08 51°13.939 2°55.551 336.8 6.7 334 9.3
2009-06-23 07:01:13 51°13.947 2°55.545 336.7 6.7 334 9.4
2009-06-23 07:01:18 51°13.956 2°55.539 336.5 6.7 334 9.3
2009-06-23 07:01:23 51°13.964 2°55.533 336.5 6.7 334 9.3
2009-06-23 07:01:28 51°13.972 2°55.526 336.5 6.7 333 9.3
2009-06-23 07:01:32 51°13.979 2°55.521 335.9 6.7 334 9.2
2009-06-23 07:01:39 51°13.991 2°55.511 335.7 6.7 333 9.1
2009-06-23 07:01:43 51°13.998 2°55.505 335.7 6.7 334 9.2
2009-06-23 07:01:48 51°14.006 2°55.499 335.7 6.7 333 9
2009-06-23 07:01:53 51°14.015 2°55.492 335.7 6.7 334 8.6
2009-06-23 07:01:58 51°14.023 2°55.485 335.6 6.6 334 8.5
2009-06-23 07:02:03 51°14.031 2°55.479 335.9 6.5 335 9
2009-06-23 07:02:08 51°14.039 2°55.473 336.4 6.4 334 9
2009-06-23 07:02:13 51°14.047 2°55.468 336.5 6.3 335 9
2009-06-23 07:02:18 51°14.054 2°55.462 336.4 6.2 334 9
2009-06-23 07:02:24 51°14.063 2°55.455 336.1 6.1 334 9
2009-06-23 07:02:28 51°14.069 2°55.451 336.1 6.1 334 8.6
2009-06-23 07:02:33 51°14.077 2°55.445 335.9 6 334 8.8
2009-06-23 07:02:38 51°14.085 2°55.438 335.7 6 333 8.4
2009-06-23 07:02:43 51°14.092 2°55.433 335.8 5.9 334 9
2009-06-23 07:02:48 51°14.099 2°55.427 336.5 5.9 335 9
2009-06-23 07:02:53 51°14.107 2°55.422 337.4 5.8 335 8.8
2009-06-23 07:02:58 51°14.114 2°55.416 338 5.8 336 9
2009-06-23 07:03:03 51°14.121 2°55.411 338.5 5.9 336 9
2009-06-23 07:03:08 51°14.129 2°55.406 338.6 6 336 9
2009-06-23 07:03:13 51°14.136 2°55.4 337.9 6.1 335 9.1
2009-06-23 07:03:18 51°14.144 2°55.394 337.4 6.2 334 9.1
2009-06-23 07:03:23 51°14.152 2°55.388 336.8 6.2 333 9
2009-06-23 07:03:28 51°14.159 2°55.382 336.2 6.2 333 9.1
2009-06-23 07:03:33 51°14.167 2°55.376 335.4 6.3 332 9
2009-06-23 07:03:38 51°14.175 2°55.369 334.7 6.4 331 9
2009-06-23 07:03:43 51°14.182 2°55.362 333.8 6.4 330 9
2009-06-23 07:03:48 51°14.19 2°55.355 332.9 6.4 329 9
2009-06-23 07:03:53 51°14.197 2°55.347 331.6 6.5 327 9
2009-06-23 07:03:58 51°14.205 2°55.339 329.9 6.5 326 9.1
2009-06-23 07:04:04 51°14.214 2°55.329 328.2 6.5 324 9.1
2009-06-23 07:04:08 51°14.219 2°55.322 326.4 6.5 323 9.1
2009-06-23 07:04:13 51°14.226 2°55.313 325.2 6.5 322 9.1
2009-06-23 07:04:18 51°14.233 2°55.305 324.3 6.5 321 9.1
2009-06-23 07:04:24 51°14.242 2°55.293 323.5 6.5 320 8.8
2009-06-23 07:04:28 51°14.247 2°55.286 322.5 6.5 319 8.7
2009-06-23 07:04:34 51°14.256 2°55.274 321.5 6.5 317 8.8
2009-06-23 07:04:38 51°14.261 2°55.266 320 6.7 316 8.9
2009-06-23 07:04:43 51°14.268 2°55.256 318.3 6.9 314 9
2009-06-23 07:04:48 51°14.274 2°55.244 316.4 7.1 313 9
2009-06-23 07:04:54 51°14.282 2°55.23 314.7 7.3 311 9.1
2009-06-23 07:04:58 51°14.287 2°55.22 313.8 7.4 311 9.1
2009-06-23 07:05:03 51°14.294 2°55.207 313.2 7.6 310 9.1
2009-06-23 07:05:08 51°14.301 2°55.194 312.2 7.8 308 9
2009-06-23 07:05:13 51°14.307 2°55.18 310.5 7.9 307 8.8
2009-06-23 07:05:18 51°14.314 2°55.166 308.6 8.2 305 9
2009-06-23 07:05:23 51°14.321 2°55.151 307.2 8.4 305 9
2009-06-23 07:05:28 51°14.327 2°55.135 306.6 8.6 305 9.1
2009-06-23 07:05:34 51°14.336 2°55.116 306.9 8.9 306 9
2009-06-23 07:05:38 51°14.342 2°55.103 307.3 9.1 306 9.1
2009-06-23 07:05:43 51°14.35 2°55.087 308.1 9.4 308 9.1
2009-06-23 07:05:48 51°14.358 2°55.07 309.2 9.6 309 9
2009-06-23 07:05:53 51°14.367 2°55.054 310.9 9.8 312 9
2009-06-23 07:05:59 51°14.378 2°55.035 313.6 10 313 8.8
2009-06-23 07:06:03 51°14.386 2°55.022 315.8 10.1 313 8.7
2009-06-23 07:06:08 51°14.395 2°55.005 316 10.2 312 8.7
2009-06-23 07:06:13 51°14.405 2°54.988 314.9 10.3 312 8.8
2009-06-23 07:06:19 51°14.417 2°54.968 315.1 10.5 313 8.8
2009-06-23 07:06:23 51°14.425 2°54.954 317.2 10.5 315 8.9
2009-06-23 07:06:28 51°14.436 2°54.938 319.8 10.6 316 8.9
2009-06-23 07:06:33 51°14.446 2°54.921 321.7 10.8 315 9
2009-06-23 07:06:39 51°14.459 2°54.9 322.3 11 314 9
2009-06-23 07:06:44 51°14.47 2°54.884 323.2 11 317 8.9
2009-06-23 07:06:48 51°14.479 2°54.871 325.7 11 319 9
2009-06-23 07:06:53 51°14.491 2°54.855 328.2 11.1 320 8.9
2009-06-23 07:06:58 51°14.503 2°54.84 329.6 11.2 322 9
2009-06-23 07:07:03 51°14.516 2°54.825 330.6 11.2 323 8.8
2009-06-23 07:07:08 51°14.529 2°54.811 332.9 11.2 325 8.7
2009-06-23 07:07:14 51°14.544 2°54.793 334.3 11.3 325 8.6
2009-06-23 07:07:18 51°14.554 2°54.782 334.7 11.2 327 8.5
2009-06-23 07:07:23 51°14.567 2°54.769 336 11.2 327 8.5
2009-06-23 07:07:28 51°14.581 2°54.756 337.5 11.2 329 8.4
2009-06-23 07:07:33 51°14.594 2°54.743 338.2 11.3 327 8.4
2009-06-23 07:07:38 51°14.607 2°54.729 337.5 11.3 328 8.3
2009-06-23 07:07:43 51°14.62 2°54.717 338 11.2 329 8.3
2009-06-23 07:07:48 51°14.634 2°54.704 339.1 11.2 329 8.3
2009-06-23 07:07:53 51°14.647 2°54.691 339.7 11.2 328 8.3
2009-06-23 07:07:59 51°14.663 2°54.676 339.1 11.2 330 8.3
2009-06-23 07:08:03 51°14.675 2°54.667 340.4 11.1 333 8.4
2009-06-23 07:08:08 51°14.689 2°54.655 341.6 11.1 333 8.3
2009-06-23 07:08:13 51°14.703 2°54.644 342 11.2 334 8.4
2009-06-23 07:08:18 51°14.717 2°54.633 342.4 11.2 334 8.4
2009-06-23 07:08:23 51°14.731 2°54.622 342.6 11.2 334 8.3
2009-06-23 07:08:28 51°14.745 2°54.611 342.7 11.2 334 8.4
2009-06-23 07:08:33 51°14.759 2°54.6 342.7 11.2 333 8.3
2009-06-23 07:08:38 51°14.773 2°54.589 342.7 11.2 334 8.3
2009-06-23 07:08:44 51°14.79 2°54.576 342.7 11.2 334 8.3
2009-06-23 07:08:48 51°14.801 2°54.567 342.6 11.2 334 8.2
2009-06-23 07:08:53 51°14.815 2°54.556 342.6 11.1 334 8.2
2009-06-23 07:08:58 51°14.829 2°54.546 342.9 11.2 334 8.3
2009-06-23 07:09:04 51°14.846 2°54.533 343 11.2 335 8.2
2009-06-23 07:09:08 51°14.857 2°54.525 343 11.2 335 8.1
2009-06-23 07:09:13 51°14.871 2°54.515 343.4 11.1 337 8.2
2009-06-23 07:09:18 51°14.885 2°54.506 343.8 11.1 336 8.2
2009-06-23 07:09:23 51°14.898 2°54.496 343.9 11.1 337 8.3
2009-06-23 07:09:28 51°14.913 2°54.486 344 11.1 336 8.5
2009-06-23 07:09:33 51°14.927 2°54.477 343.9 11.1 337 8.5
2009-06-23 07:09:38 51°14.941 2°54.467 344.1 11.1 336 8.6
2009-06-23 07:09:43 51°14.955 2°54.458 344.2 11.1 336 8.8
2009-06-23 07:09:48 51°14.968 2°54.444 340.3 11.3 328 8.9
2009-06-23 07:09:53 51°14.982 2°54.432 337.9 11.1 331 8.9
2009-06-23 07:09:58 51°14.995 2°54.419 336.9 11.3 327 8.9
2009-06-23 07:10:04 51°15.011 2°54.403 334.9 11.2 327 9
2009-06-23 07:10:08 51°15.022 2°54.391 333.9 11.2 325 9
2009-06-23 07:10:14 51°15.037 2°54.373 332.5 11.2 324 8.9
2009-06-23 07:10:18 51°15.046 2°54.361 331.9 11.3 323 9
2009-06-23 07:10:23 51°15.058 2°54.346 330.8 11.3 321 8.9
2009-06-23 07:10:28 51°15.071 2°54.33 330.2 11.3 321 9
2009-06-23 07:10:32 51°15.08 2°54.318 329.7 11.3 320 9
2009-06-23 07:10:39 51°15.097 2°54.295 328.9 11.3 319 9
2009-06-23 07:10:43 51°15.106 2°54.282 328.2 11.3 318 9.1
2009-06-23 07:10:48 51°15.118 2°54.264 326 11.4 315 9.1
2009-06-23 07:10:53 51°15.129 2°54.247 325.3 11.4 317 9.1
2009-06-23 07:10:58 51°15.14 2°54.228 324.2 11.4 314 9.1
2009-06-23 07:11:03 51°15.151 2°54.21 322.6 11.5 313 9.1
2009-06-23 07:11:08 51°15.161 2°54.191 320.9 11.5 311 9.1
2009-06-23 07:11:13 51°15.172 2°54.172 320.5 11.5 312 9.2
2009-06-23 07:11:18 51°15.182 2°54.153 320 11.5 311 9.1
2009-06-23 07:11:24 51°15.195 2°54.13 319.5 11.5 311 8.9
2009-06-23 07:11:28 51°15.203 2°54.114 318.2 11.6 309 8.6
2009-06-23 07:11:33 51°15.213 2°54.094 316.9 11.6 308 8.1
2009-06-23 07:11:38 51°15.222 2°54.073 316.3 11.6 306 7.8
2009-06-23 07:11:43 51°15.231 2°54.052 315.1 11.6 305 7.8
2009-06-23 07:11:48 51°15.241 2°54.031 314.3 11.6 304 7.6
2009-06-23 07:11:53 51°15.249 2°54.009 312.4 11.7 303 7.6
2009-06-23 07:11:58 51°15.258 2°53.988 311.6 11.7 302 5.6
2009-06-23 07:12:03 51°15.266 2°53.965 310.5 11.7 301 5.7
2009-06-23 07:12:08 51°15.275 2°53.943 309.5 11.8 300 8
2009-06-23 07:12:13 51°15.282 2°53.92 307.1 11.9 298 8
2009-06-23 07:12:18 51°15.29 2°53.897 306 11.9 298 8.1
2009-06-23 07:12:23 51°15.297 2°53.873 304.6 12 296 8.2
2009-06-23 07:12:28 51°15.305 2°53.849 303.1 12 295 8
2009-06-23 07:12:33 51°15.312 2°53.824 302.3 12.1 294 8.4
2009-06-23 07:12:38 51°15.318 2°53.8 301.5 12.1 293 8.4
2009-06-23 07:12:43 51°15.325 2°53.775 300.9 12.1 293 8.4
2009-06-23 07:12:48 51°15.332 2°53.751 301.3 12.1 294 8.5
2009-06-23 07:12:53 51°15.339 2°53.727 302.9 12.1 296 8.7
2009-06-23 07:12:58 51°15.346 2°53.703 303.1 12.1 295 8.5
2009-06-23 07:13:04 51°15.355 2°53.674 303.6 12 297 8.6
2009-06-23 07:13:08 51°15.361 2°53.655 304.5 12 297 8.6
2009-06-23 07:13:13 51°15.369 2°53.632 305.1 12 299 8.7
2009-06-23 07:13:19 51°15.379 2°53.604 305.8 12.1 298 8.8
2009-06-23 07:13:24 51°15.387 2°53.58 305.9 12 298 8.8
2009-06-23 07:13:28 51°15.393 2°53.562 306 12 298 9
2009-06-23 07:13:34 51°15.402 2°53.533 305.6 12.1 297 9
2009-06-23 07:13:38 51°15.408 2°53.514 304.9 12.1 297 9
2009-06-23 07:13:43 51°15.416 2°53.49 304.8 12.1 297 8.9
2009-06-23 07:13:48 51°15.423 2°53.466 304.5 12.1 296 9
2009-06-23 07:13:54 51°15.432 2°53.437 304.4 12.1 296 9.2
2009-06-23 07:13:58 51°15.438 2°53.418 304.5 12.2 296 9.5
2009-06-23 07:14:04 51°15.447 2°53.389 304.2 12.2 296 9.2
2009-06-23 07:14:08 51°15.453 2°53.37 304.2 12.2 296 9.1
2009-06-23 07:14:13 51°15.46 2°53.346 304.2 12.2 296 9.4
2009-06-23 07:14:18 51°15.468 2°53.322 304.8 12.2 297 9.4
2009-06-23 07:14:23 51°15.475 2°53.298 305.1 12.2 297 9.1
2009-06-23 07:14:28 51°15.483 2°53.273 305.2 12.2 297 9.6
2009-06-23 07:14:34 51°15.493 2°53.245 306.4 12.2 299 9.5
2009-06-23 07:14:38 51°15.499 2°53.226 306.9 12.2 298 9.6
2009-06-23 07:14:43 51°15.507 2°53.203 307.4 12.2 300 9.7
2009-06-23 07:14:48 51°15.515 2°53.179 307.9 12.2 299 9.6
2009-06-23 07:14:53 51°15.524 2°53.156 308.3 12.2 300 9.6
2009-06-23 07:14:59 51°15.534 2°53.127 308.6 12.2 299 9.8
2009-06-23 07:15:03 51°15.541 2°53.109 308.8 12.2 300 9.8
2009-06-23 07:15:08 51°15.549 2°53.085 309.2 12.2 300 9.7
2009-06-23 07:15:13 51°15.558 2°53.062 309.3 12.2 300 9.9
2009-06-23 07:15:19 51°15.568 2°53.034 309.3 12.2 300 9.9
2009-06-23 07:15:23 51°15.575 2°53.015 309.4 12.3 300 9.9
2009-06-23 07:15:28 51°15.584 2°52.992 309.1 12.3 300 9.8
2009-06-23 07:15:33 51°15.592 2°52.969 309.1 12.2 302 10
2009-06-23 07:15:39 51°15.603 2°52.942 310.2 12 304 9.9
2009-06-23 07:15:44 51°15.614 2°52.922 314.7 11.8 309 10.1
2009-06-23 07:15:48 51°15.623 2°52.907 320.2 11.7 313 10.1
2009-06-23 07:15:53 51°15.634 2°52.889 322.8 11.7 314 10
2009-06-23 07:15:58 51°15.646 2°52.872 324.9 11.3 321 10
2009-06-23 07:16:04 51°15.661 2°52.854 331.1 11.2 324 10.2
2009-06-23 07:16:08 51°15.672 2°52.845 336.7 11.1 329 10.1
2009-06-23 07:16:14 51°15.688 2°52.83 339 11.1 329 10.2
2009-06-23 07:16:18 51°15.699 2°52.822 341.4 11 335 10.2
2009-06-23 07:16:23 51°15.713 2°52.811 343.3 11.1 335 10.3
2009-06-23 07:16:28 51°15.727 2°52.802 344.8 11 337 10.3
2009-06-23 07:16:33 51°15.741 2°52.792 345.6 11.1 336 10.4
2009-06-23 07:16:39 51°15.759 2°52.781 346.7 11 339 10.5
2009-06-23 07:16:43 51°15.77 2°52.773 347.4 11.1 338 10.3
2009-06-23 07:16:48 51°15.784 2°52.765 348.1 11 340 10.3
2009-06-23 07:16:53 51°15.798 2°52.756 348.9 11.1 339 10.4
2009-06-23 07:16:59 51°15.816 2°52.746 349.2 11 340 10.4
2009-06-23 07:17:03 51°15.827 2°52.739 349.8 11.1 339 10.5
2009-06-23 07:17:08 51°15.842 2°52.731 349.7 11 340 10.7
2009-06-23 07:17:13 51°15.856 2°52.722 349.9 11 340 10.6
2009-06-23 07:17:18 51°15.871 2°52.714 350.4 11.1 340 10.6
2009-06-23 07:17:23 51°15.885 2°52.705 350 11.1 340 10.7
2009-06-23 07:17:28 51°15.9 2°52.698 350.6 11 341 10.6
2009-06-23 07:17:33 51°15.914 2°52.689 350.3 11 341 10.6
2009-06-23 07:17:38 51°15.929 2°52.682 350.5 11 342 10.7
2009-06-23 07:17:44 51°15.946 2°52.675 353.5 10.8 347 10.7
2009-06-23 07:17:48 51°15.958 2°52.671 355.8 10.8 348 10.7
2009-06-23 07:17:53 51°15.972 2°52.667 358.3 10.7 351 10.9
2009-06-23 07:17:58 51°15.987 2°52.664 0.1 10.7 352 10.8
2009-06-23 07:18:04 51°16.005 2°52.66 1.6 10.7 353 10.8
2009-06-23 07:18:08 51°16.017 2°52.658 2.9 10.6 355 10.8
2009-06-23 07:18:13 51°16.031 2°52.656 3.6 10.6 354 10.8
2009-06-23 07:18:18 51°16.046 2°52.654 4.5 10.6 355 10.7
2009-06-23 07:18:23 51°16.061 2°52.651 4.9 10.6 353 10.8
2009-06-23 07:18:28 51°16.075 2°52.649 4.9 10.4 355 10.8
2009-06-23 07:18:33 51°16.089 2°52.647 5.7 10.4 355 10.8
2009-06-23 07:18:38 51°16.104 2°52.645 6.3 10.4 356 10.7
2009-06-23 07:18:43 51°16.118 2°52.644 6.6 10.4 356 10.8
2009-06-23 07:18:48 51°16.132 2°52.643 6.7 10.3 358 10.9
2009-06-23 07:18:53 51°16.147 2°52.642 7.5 10.4 357 10.8
2009-06-23 07:18:58 51°16.161 2°52.642 7.8 10.4 359 10.9
2009-06-23 07:19:04 51°16.178 2°52.641 7.6 10.3 359 10.9
2009-06-23 07:19:08 51°16.19 2°52.64 7.4 10.4 358 10.8
2009-06-23 07:19:14 51°16.207 2°52.639 8.1 10.4 358 10.9
2009-06-23 07:19:18 51°16.218 2°52.637 6.2 10.5 355 11
2009-06-23 07:19:23 51°16.233 2°52.636 5.6 10.5 357 10.9
2009-06-23 07:19:28 51°16.247 2°52.634 5.6 10.6 354 10.8
2009-06-23 07:19:34 51°16.265 2°52.632 5.3 10.6 356 10.8
2009-06-23 07:19:39 51°16.28 2°52.63 4.9 10.6 355 10.9
2009-06-23 07:19:43 51°16.291 2°52.628 4.8 10.6 354 10.7
2009-06-23 07:19:48 51°16.306 2°52.626 4.5 10.7 354 10.8
2009-06-23 07:19:53 51°16.321 2°52.623 4.2 10.6 354 10.8
2009-06-23 07:19:59 51°16.339 2°52.619 3.9 10.7 352 10.8
2009-06-23 07:20:03 51°16.35 2°52.617 3.3 10.6 353 10.9
2009-06-23 07:20:08 51°16.365 2°52.614 2.6 10.7 352 10.8
2009-06-23 07:20:14 51°16.383 2°52.61 2.7 10.6 353 10.8
2009-06-23 07:20:18 51°16.395 2°52.608 2.9 10.6 355 10.7
2009-06-23 07:20:23 51°16.409 2°52.607 3.6 10.6 358 10.8
2009-06-23 07:20:28 51°16.424 2°52.607 4.4 10.7 357 10.7
2009-06-23 07:20:33 51°16.439 2°52.605 3.7 10.7 357 10.6
2009-06-23 07:20:38 51°16.453 2°52.604 3.2 10.7 357 10.7
2009-06-23 07:20:44 51°16.471 2°52.602 3 10.7 357 10.7
2009-06-23 07:20:48 51°16.483 2°52.601 2.5 10.7 356 10.5
2009-06-23 07:20:53 51°16.497 2°52.599 2.5 10.8 357 10.6
2009-06-23 07:20:59 51°16.515 2°52.598 3.4 10.8 357 10.4
2009-06-23 07:21:03 51°16.527 2°52.596 2.4 10.8 354 10.3
2009-06-23 07:21:08 51°16.542 2°52.594 0.9 10.7 355 10.3
2009-06-23 07:21:13 51°16.557 2°52.592 1.1 10.8 354 10.2
2009-06-23 07:21:19 51°16.575 2°52.589 0.6 10.8 354 10
2009-06-23 07:21:23 51°16.587 2°52.587 0.1 10.8 354 10
2009-06-23 07:21:28 51°16.602 2°52.584 359.9 10.8 353 10
2009-06-23 07:21:33 51°16.617 2°52.581 359.7 10.8 354 9.8
2009-06-23 07:21:38 51°16.631 2°52.578 359.9 10.8 353 9.8
2009-06-23 07:21:43 51°16.646 2°52.575 359.4 10.7 353 9.8
2009-06-23 07:21:48 51°16.661 2°52.572 359.3 10.8 352 9.6
2009-06-23 07:21:54 51°16.679 2°52.568 358.6 10.7 352 9.3
2009-06-23 07:21:59 51°16.694 2°52.565 357.9 10.7 351 9.1
2009-06-23 07:22:03 51°16.706 2°52.562 357.7 10.7 352 9
2009-06-23 07:22:08 51°16.72 2°52.558 357.9 10.6 352 8.6
2009-06-23 07:22:13 51°16.735 2°52.556 358.8 10.6 353 8.6
2009-06-23 07:22:19 51°16.752 2°52.552 358.9 10.6 352 8.6
2009-06-23 07:22:23 51°16.764 2°52.55 359.2 10.6 353 8.6
2009-06-23 07:22:28 51°16.779 2°52.546 358.6 10.6 352 8.8
2009-06-23 07:22:34 51°16.796 2°52.542 357.9 10.6 351 8.7
2009-06-23 07:22:39 51°16.811 2°52.538 357.9 10.6 351 8.8
2009-06-23 07:22:43 51°16.822 2°52.536 357.6 10.6 351 8.8
2009-06-23 07:22:48 51°16.837 2°52.532 357.3 10.6 351 8.7
2009-06-23 07:22:53 51°16.851 2°52.528 357.4 10.5 351 8.7
2009-06-23 07:22:58 51°16.866 2°52.524 357.6 10.5 351 8.7
2009-06-23 07:23:03 51°16.88 2°52.521 357.7 10.5 351 8.8
2009-06-23 07:23:08 51°16.894 2°52.517 357.5 10.5 351 8.8
2009-06-23 07:23:13 51°16.909 2°52.513 357.7 10.5 351 8.7
2009-06-23 07:23:19 51°16.926 2°52.509 358 10.5 352 8.6
2009-06-23 07:23:23 51°16.937 2°52.506 358.2 10.5 351 8.6
2009-06-23 07:23:28 51°16.952 2°52.503 357.9 10.5 352 8.5
2009-06-23 07:23:33 51°16.966 2°52.499 358.2 10.5 352 8.5
2009-06-23 07:23:39 51°16.983 2°52.496 358.2 10.4 352 8.3
2009-06-23 07:23:43 51°16.995 2°52.493 358.6 10.4 352 8.3
2009-06-23 07:23:48 51°17.009 2°52.49 358.6 10.4 352 8.6
2009-06-23 07:23:53 51°17.023 2°52.486 358.2 10.5 351 8.5
2009-06-23 07:23:58 51°17.038 2°52.483 358.3 10.5 352 8.6
2009-06-23 07:24:03 51°17.052 2°52.48 358.8 10.5 353 8.6
2009-06-23 07:24:08 51°17.067 2°52.477 359.5 10.4 353 8.5
2009-06-23 07:24:13 51°17.081 2°52.474 359.4 10.5 351 8.6
2009-06-23 07:24:18 51°17.095 2°52.47 358.9 10.5 352 8.6
2009-06-23 07:24:24 51°17.113 2°52.466 358.6 10.5 351 8.5
2009-06-23 07:24:28 51°17.124 2°52.464 358.6 10.5 352 8.7
2009-06-23 07:24:33 51°17.139 2°52.461 359.4 10.5 354 8.7
2009-06-23 07:24:39 51°17.156 2°52.457 359.9 10.5 352 8.8
2009-06-23 07:24:44 51°17.171 2°52.455 359.9 10.5 352 8.8
2009-06-23 07:24:48 51°17.182 2°52.452 359.6 10.5 352 8.8
2009-06-23 07:24:54 51°17.199 2°52.448 359 10.5 352 8.9
2009-06-23 07:24:58 51°17.211 2°52.445 359.1 10.5 351 8.8
2009-06-23 07:25:03 51°17.225 2°52.441 358.8 10.5 350 8.9
2009-06-23 07:25:08 51°17.24 2°52.436 357 10.5 348 9
2009-06-23 07:25:13 51°17.254 2°52.432 356.4 10.5 348 9.1
2009-06-23 07:25:18 51°17.268 2°52.426 355.4 10.5 345 9
2009-06-23 07:25:24 51°17.285 2°52.419 354.5 10.6 346 9.1
2009-06-23 07:25:28 51°17.296 2°52.414 354.1 10.6 345 9
2009-06-23 07:25:34 51°17.313 2°52.407 353.7 10.6 344 9.1
2009-06-23 07:25:38 51°17.324 2°52.4 352.1 10.6 341 9.3
2009-06-23 07:25:43 51°17.338 2°52.393 351.1 10.6 343 9.1
2009-06-23 07:25:48 51°17.352 2°52.385 350.4 10.6 340 9.1
2009-06-23 07:25:54 51°17.369 2°52.376 349.4 10.6 341 9.2
2009-06-23 07:25:59 51°17.382 2°52.367 349.2 10.6 339 9.1
2009-06-23 07:26:03 51°17.394 2°52.361 348.6 10.6 340 9.3
2009-06-23 07:26:08 51°17.407 2°52.353 348.7 10.6 340 9.1
2009-06-23 07:26:13 51°17.421 2°52.344 348.2 10.6 339 9.3
2009-06-23 07:26:19 51°17.438 2°52.335 348.1 10.6 340 9.2
2009-06-23 07:26:23 51°17.449 2°52.328 348.3 10.6 340 9.2
2009-06-23 07:26:28 51°17.463 2°52.32 348.4 10.6 340 9.3
2009-06-23 07:26:34 51°17.479 2°52.31 348.1 10.7 339 9.2
2009-06-23 07:26:39 51°17.493 2°52.301 347.8 10.7 339 9.4
2009-06-23 07:26:43 51°17.504 2°52.294 347.6 10.6 338 9.1
2009-06-23 07:26:48 51°17.518 2°52.286 347.6 10.7 339 9.3
2009-06-23 07:26:53 51°17.532 2°52.277 348 10.7 339 9.3
2009-06-23 07:26:58 51°17.546 2°52.269 348.4 10.7 340 9.3
2009-06-23 07:27:03 51°17.559 2°52.261 348.5 10.7 339 9.3
2009-06-23 07:27:08 51°17.573 2°52.253 348.5 10.7 340 9.7
2009-06-23 07:27:13 51°17.587 2°52.244 348.3 10.7 339 9.3
2009-06-23 07:27:18 51°17.601 2°52.236 348.4 10.7 340 10
2009-06-23 07:27:24 51°17.618 2°52.226 348.5 10.8 340 9.9
2009-06-23 07:27:28 51°17.629 2°52.22 348.5 10.7 340 9.8
2009-06-23 07:27:33 51°17.643 2°52.212 348.6 10.7 340 10
2009-06-23 07:27:39 51°17.66 2°52.201 348.4 10.8 339 9.9
2009-06-23 07:27:44 51°17.674 2°52.193 348.2 10.8 339 9.6
2009-06-23 07:27:48 51°17.685 2°52.186 348.5 10.7 339 9.9
2009-06-23 07:27:53 51°17.699 2°52.177 348.2 10.7 339 9.7
2009-06-23 07:27:58 51°17.713 2°52.169 348.4 10.8 339 10
2009-06-23 07:28:03 51°17.727 2°52.16 348.5 10.8 339 9.4
2009-06-23 07:28:08 51°17.741 2°52.152 348.7 10.7 339 9.5
2009-06-23 07:28:13 51°17.754 2°52.144 348.8 10.7 340 10
2009-06-23 07:28:19 51°17.771 2°52.134 349 10.8 340 10.1
2009-06-23 07:28:23 51°17.782 2°52.127 348.7 10.7 340 9.5
2009-06-23 07:28:28 51°17.796 2°52.119 348.9 10.7 340 10.2
2009-06-23 07:28:33 51°17.81 2°52.111 349.2 10.7 340 9.5
2009-06-23 07:28:38 51°17.824 2°52.103 349.2 10.7 341 9.8
2009-06-23 07:28:43 51°17.838 2°52.095 349.3 10.7 341 10.4
2009-06-23 07:28:48 51°17.853 2°52.088 349.4 10.7 341 9.7
2009-06-23 07:28:53 51°17.867 2°52.08 349.1 10.7 341 10.1
2009-06-23 07:28:58 51°17.881 2°52.072 349.1 10.7 341 10.1
2009-06-23 07:29:04 51°17.898 2°52.063 349.9 10.7 342 9.4
2009-06-23 07:29:08 51°17.909 2°52.057 350.6 10.7 343 10.1
2009-06-23 07:29:13 51°17.923 2°52.05 350.7 10.7 342 9.3
2009-06-23 07:29:18 51°17.937 2°52.042 350.7 10.8 342 9.7
2009-06-23 07:29:23 51°17.951 2°52.034 350 10.8 340 10
2009-06-23 07:29:28 51°17.965 2°52.026 349.2 10.7 341 9.6
2009-06-23 07:29:33 51°17.979 2°52.019 349.2 10.8 341 9.5
2009-06-23 07:29:38 51°17.994 2°52.011 349.7 10.8 341 9.8
2009-06-23 07:29:44 51°18.011 2°52.002 350.2 10.7 342 9.8
2009-06-23 07:29:48 51°18.022 2°51.996 350.5 10.8 341 9.2
2009-06-23 07:29:53 51°18.036 2°51.988 350.3 10.8 341 9.6
2009-06-23 07:29:58 51°18.05 2°51.98 349.9 10.8 340 9.5
2009-06-23 07:30:03 51°18.064 2°51.972 349.5 10.8 340 9.4
2009-06-23 07:30:08 51°18.078 2°51.963 348.9 10.8 340 9.6
2009-06-23 07:30:12 51°18.089 2°51.957 348.9 10.8 339 9.6
2009-06-23 07:30:18 51°18.106 2°51.947 348.7 10.8 340 9.5
2009-06-23 07:30:23 51°18.12 2°51.939 348.6 10.8 340 9.6
2009-06-23 07:30:28 51°18.134 2°51.93 348.6 10.8 339 9.7
2009-06-23 07:30:33 51°18.148 2°51.922 348.5 10.8 340 9.6
2009-06-23 07:30:38 51°18.162 2°51.914 348.5 10.8 340 9.7
2009-06-23 07:30:43 51°18.177 2°51.906 348.6 10.8 340 9.8
2009-06-23 07:30:48 51°18.191 2°51.897 348.5 10.8 339 9.9
2009-06-23 07:30:53 51°18.205 2°51.889 348.3 10.8 340 9.9
2009-06-23 07:30:59 51°18.222 2°51.879 348.5 10.8 340 9.9
2009-06-23 07:31:03 51°18.233 2°51.872 348.4 10.8 339 10
2009-06-23 07:31:08 51°18.247 2°51.863 348.3 10.8 339 10.1
2009-06-23 07:31:13 51°18.261 2°51.855 348.3 10.9 339 10.2
2009-06-23 07:31:19 51°18.278 2°51.845 348.4 10.8 340 10.3
2009-06-23 07:31:23 51°18.289 2°51.838 348.6 10.8 339 10.3
2009-06-23 07:31:28 51°18.303 2°51.83 348.8 10.9 340 10.4
2009-06-23 07:31:33 51°18.318 2°51.821 348.9 10.9 340 10.5
2009-06-23 07:31:38 51°18.332 2°51.813 348.6 10.8 340 10.5
2009-06-23 07:31:43 51°18.346 2°51.805 349 10.9 340 10.6
2009-06-23 07:31:48 51°18.36 2°51.797 349.2 10.9 340 10.7
2009-06-23 07:31:53 51°18.374 2°51.789 349.1 10.9 340 10.7
2009-06-23 07:31:58 51°18.388 2°51.78 349 10.9 340 10.7
2009-06-23 07:32:03 51°18.403 2°51.772 349 10.9 340 10.9
2009-06-23 07:32:08 51°18.417 2°51.764 348.9 10.9 340 11
2009-06-23 07:32:13 51°18.431 2°51.756 349.1 10.9 340 11.1
2009-06-23 07:32:18 51°18.445 2°51.746 348.5 11 336 11.1
2009-06-23 07:32:23 51°18.459 2°51.737 347 10.9 338 11.1
2009-06-23 07:32:28 51°18.473 2°51.728 346.7 11 337 11.3
2009-06-23 07:32:32 51°18.484 2°51.72 346.4 11 337 11.4
2009-06-23 07:32:38 51°18.501 2°51.709 346.1 10.9 337 11.4
2009-06-23 07:32:43 51°18.515 2°51.699 346.1 11 337 11.6
2009-06-23 07:32:48 51°18.528 2°51.69 345.8 11 336 11.6
2009-06-23 07:32:54 51°18.545 2°51.679 345.6 11 337 11.8
2009-06-23 07:32:58 51°18.556 2°51.671 346 11 336 11.8
2009-06-23 07:33:03 51°18.57 2°51.661 345.6 11 336 11.9
2009-06-23 07:33:08 51°18.584 2°51.651 345.4 11 336 12.1
2009-06-23 07:33:14 51°18.601 2°51.638 345.3 11 336 12
2009-06-23 07:33:18 51°18.612 2°51.63 345.3 11 336 12.2
2009-06-23 07:33:23 51°18.626 2°51.62 344.9 11 334 12.1
2009-06-23 07:33:28 51°18.64 2°51.609 344.2 11 335 12.2
2009-06-23 07:33:32 51°18.651 2°51.601 344.5 11 336 12.4
2009-06-23 07:33:38 51°18.668 2°51.589 345 11 336 12.5
2009-06-23 07:33:44 51°18.685 2°51.577 345.3 11 336 12.6
2009-06-23 07:33:48 51°18.696 2°51.569 345.3 11 336 12.5
2009-06-23 07:33:53 51°18.71 2°51.559 345.5 11 336 12.7
2009-06-23 07:33:58 51°18.724 2°51.549 345.9 11 336 12.9
2009-06-23 07:34:03 51°18.738 2°51.539 345.6 11 335 12.8
2009-06-23 07:34:08 51°18.751 2°51.528 344.3 11 334 12.8
2009-06-23 07:34:13 51°18.765 2°51.518 344.2 11 335 13.1
2009-06-23 07:34:18 51°18.779 2°51.508 344.5 11 335 13
2009-06-23 07:34:23 51°18.793 2°51.497 344.2 11 335 13.2
2009-06-23 07:34:28 51°18.807 2°51.486 343.5 11.1 334 13.2
2009-06-23 07:34:33 51°18.821 2°51.476 343.3 11.1 334 13.2
2009-06-23 07:34:38 51°18.834 2°51.464 342.9 11.1 332 13.3
2009-06-23 07:34:43 51°18.848 2°51.453 342.7 11.1 333 13.3
2009-06-23 07:34:48 51°18.862 2°51.442 342.7 11.2 333 13.2
2009-06-23 07:34:53 51°18.875 2°51.431 342.7 11.1 333 13.3
2009-06-23 07:34:58 51°18.889 2°51.419 342.9 11.2 332 13.3
2009-06-23 07:35:03 51°18.903 2°51.408 343 11.1 332 13.2
2009-06-23 07:35:08 51°18.916 2°51.396 342.7 11.2 332 13.3
2009-06-23 07:35:13 51°18.93 2°51.384 342.5 11.1 332 13.5
2009-06-23 07:35:18 51°18.944 2°51.373 342.7 11.2 332 13.7
2009-06-23 07:35:23 51°18.957 2°51.361 342.9 11.2 332 13.4
2009-06-23 07:35:28 51°18.971 2°51.349 343.3 11.2 332 13.4
2009-06-23 07:35:33 51°18.985 2°51.338 343.3 11.1 332 13.5
2009-06-23 07:35:39 51°19.001 2°51.324 343.4 11.1 332 13.4
2009-06-23 07:35:43 51°19.012 2°51.315 343.7 11.1 332 13.5
2009-06-23 07:35:48 51°19.026 2°51.303 343.4 11.1 332 13.6
2009-06-23 07:35:53 51°19.039 2°51.291 343.6 11.1 332 13.5
2009-06-23 07:35:59 51°19.056 2°51.278 343.5 11.1 333 13.6
2009-06-23 07:36:03 51°19.067 2°51.269 344 11.1 333 13.6
2009-06-23 07:36:08 51°19.08 2°51.257 344.2 11.1 332 13.8
2009-06-23 07:36:13 51°19.094 2°51.246 343.8 11.1 332 13.7
2009-06-23 07:36:18 51°19.108 2°51.235 343.7 11.1 333 13.8
2009-06-23 07:36:23 51°19.121 2°51.223 343.8 11.1 333 14.1
2009-06-23 07:36:28 51°19.135 2°51.212 344 11.1 333 13.9
2009-06-23 07:36:33 51°19.149 2°51.201 343.9 11.1 333 14.1
2009-06-23 07:36:38 51°19.162 2°51.19 343.9 11 333 14
2009-06-23 07:36:43 51°19.175 2°51.18 343.9 11.1 332 13.9
2009-06-23 07:36:48 51°19.189 2°51.168 343.7 11.1 333 14.1
2009-06-23 07:36:53 51°19.203 2°51.157 343.9 11.1 333 14
2009-06-23 07:36:58 51°19.217 2°51.145 344 11 333 13.9
2009-06-23 07:37:03 51°19.23 2°51.134 343.8 11.2 332 14.1
2009-06-23 07:37:08 51°19.244 2°51.122 343.6 11.1 333 13.8
2009-06-23 07:37:12 51°19.255 2°51.113 344.1 11.1 333 13.8
2009-06-23 07:37:18 51°19.272 2°51.1 344.6 11.1 333 13.9
2009-06-23 07:37:23 51°19.285 2°51.089 344.4 11.1 333 13.9
2009-06-23 07:37:28 51°19.299 2°51.077 344.1 11.1 333 13.8
2009-06-23 07:37:32 51°19.31 2°51.068 344 11.1 332 13.9
2009-06-23 07:37:38 51°19.326 2°51.054 343.7 11.1 332 13.9
2009-06-23 07:37:43 51°19.34 2°51.043 343.8 11.1 332 13.9
2009-06-23 07:37:48 51°19.354 2°51.031 343.6 11.1 331 13.7
2009-06-23 07:37:54 51°19.37 2°51.018 343.5 11.1 333 13.7
2009-06-23 07:37:58 51°19.381 2°51.009 344.3 11 334 13.5
2009-06-23 07:38:03 51°19.395 2°50.999 345.4 11 335 13.5
2009-06-23 07:38:08 51°19.409 2°50.988 345.5 11 334 13.6
2009-06-23 07:38:12 51°19.42 2°50.98 345.4 11 333 13.3
2009-06-23 07:38:18 51°19.436 2°50.967 344.7 11.1 334 13.3
2009-06-23 07:38:23 51°19.45 2°50.956 344.5 11 333 13
2009-06-23 07:38:28 51°19.463 2°50.945 344.2 11 333 13.2
2009-06-23 07:38:32 51°19.474 2°50.936 344.1 11.1 332 13
2009-06-23 07:38:38 51°19.49 2°50.922 343.6 11 333 12.8
2009-06-23 07:38:43 51°19.504 2°50.912 344 11 334 12.9
2009-06-23 07:38:48 51°19.518 2°50.901 344.4 10.9 334 12.6
2009-06-23 07:38:52 51°19.529 2°50.893 345.4 10.9 335 12.4
2009-06-23 07:38:58 51°19.545 2°50.88 345.6 10.9 334 12.3
2009-06-23 07:39:03 51°19.559 2°50.869 344.9 10.9 334 12.2
2009-06-23 07:39:08 51°19.572 2°50.859 344.6 11 334 12
2009-06-23 07:39:12 51°19.583 2°50.85 344.1 11 334 12
2009-06-23 07:39:18 51°19.6 2°50.837 344.2 11 334 11.8
2009-06-23 07:39:23 51°19.613 2°50.826 344 11 333 11.5
2009-06-23 07:39:28 51°19.627 2°50.816 343.9 11 333 11.8
2009-06-23 07:39:34 51°19.643 2°50.803 343.3 11 334 11.7
2009-06-23 07:39:38 51°19.654 2°50.794 343.9 10.9 334 11.2
2009-06-23 07:39:43 51°19.668 2°50.783 344 11 334 11.6
2009-06-23 07:39:48 51°19.682 2°50.773 344.1 11 334 11.5
2009-06-23 07:39:54 51°19.698 2°50.76 344.2 11 334 11.3
2009-06-23 07:39:58 51°19.709 2°50.752 344.1 11 335 11.3
2009-06-23 07:40:03 51°19.723 2°50.741 344.2 11 334 11.3
2009-06-23 07:40:08 51°19.737 2°50.731 344.1 11 334 11.4
2009-06-23 07:40:12 51°19.748 2°50.722 343.8 11 334 11.2
2009-06-23 07:40:18 51°19.764 2°50.709 344 11 334 11.1
2009-06-23 07:40:23 51°19.778 2°50.698 343.6 11 334 10.8
2009-06-23 07:40:28 51°19.792 2°50.688 343.6 11 335 11
2009-06-23 07:40:32 51°19.803 2°50.679 343.9 11 334 11.1
2009-06-23 07:40:38 51°19.819 2°50.667 344 11 334 11.1
2009-06-23 07:40:44 51°19.836 2°50.654 344 11.1 334 11.3
2009-06-23 07:40:48 51°19.847 2°50.645 344.2 11 335 11.5
2009-06-23 07:40:53 51°19.861 2°50.635 344.2 11.1 334 11.6
2009-06-23 07:40:58 51°19.875 2°50.624 344.1 11.1 335 11.8
2009-06-23 07:41:03 51°19.889 2°50.614 344.9 11.1 335 11.9
2009-06-23 07:41:08 51°19.903 2°50.604 345.6 11.1 336 12
2009-06-23 07:41:13 51°19.917 2°50.594 345.5 11.2 335 12.6
2009-06-23 07:41:18 51°19.931 2°50.583 344.8 11.2 334 12.8
2009-06-23 07:41:23 51°19.945 2°50.573 344.4 11.1 334 12.8
2009-06-23 07:41:28 51°19.959 2°50.562 344.1 11.2 334 13.3
2009-06-23 07:41:33 51°19.973 2°50.551 344 11.2 334 13.4
2009-06-23 07:41:38 51°19.987 2°50.541 344.5 11.2 335 13.5
2009-06-23 07:41:43 51°20.001 2°50.53 344.9 11.2 334 13.7
2009-06-23 07:41:48 51°20.015 2°50.519 344.3 11.2 334 14
2009-06-23 07:41:53 51°20.029 2°50.508 344.2 11.2 334 14
2009-06-23 07:41:58 51°20.043 2°50.497 344 11.2 333 14.4
2009-06-23 07:42:03 51°20.057 2°50.485 343.7 11.2 333 14.2
2009-06-23 07:42:08 51°20.07 2°50.474 343.4 11.2 332 14.2
2009-06-23 07:42:13 51°20.084 2°50.463 343.2 11.3 333 14.8
2009-06-23 07:42:18 51°20.098 2°50.451 343.4 11.2 333 14.6
2009-06-23 07:42:23 51°20.112 2°50.44 343.8 11.2 332 14.6
2009-06-23 07:42:28 51°20.126 2°50.428 343.5 11.3 332 14.8
2009-06-23 07:42:33 51°20.14 2°50.416 343.4 11.3 332 14.8
2009-06-23 07:42:39 51°20.156 2°50.402 343.4 11.3 332 14.9
2009-06-23 07:42:43 51°20.167 2°50.393 343.8 11.3 333 14.8
2009-06-23 07:42:48 51°20.181 2°50.381 343.8 11.3 332 15
2009-06-23 07:42:53 51°20.195 2°50.369 343.6 11.3 332 15.1
2009-06-23 07:42:59 51°20.212 2°50.355 343.7 11.4 332 15.2
2009-06-23 07:43:03 51°20.223 2°50.346 344.2 11.4 333 15.2
2009-06-23 07:43:08 51°20.237 2°50.334 344.7 11.3 333 15.4
2009-06-23 07:43:13 51°20.251 2°50.322 344.4 11.4 332 15.6
2009-06-23 07:43:18 51°20.265 2°50.31 344 11.4 332 15.8
2009-06-23 07:43:23 51°20.279 2°50.298 344 11.4 332 15.8
2009-06-23 07:43:28 51°20.293 2°50.286 343.7 11.4 331 16.2
2009-06-23 07:43:33 51°20.307 2°50.274 343.8 11.4 332 16.3
2009-06-23 07:43:38 51°20.321 2°50.262 344.4 11.4 333 16.7
2009-06-23 07:43:43 51°20.335 2°50.251 345.4 11.4 334 17
2009-06-23 07:43:48 51°20.349 2°50.24 346 11.4 334 17.1
2009-06-23 07:43:53 51°20.363 2°50.229 346.8 11.4 334 17.2
2009-06-23 07:43:58 51°20.377 2°50.218 346.7 11.4 333 17.5
2009-06-23 07:44:03 51°20.391 2°50.207 346.2 11.4 333 17.9
2009-06-23 07:44:08 51°20.406 2°50.195 346 11.5 333 18
2009-06-23 07:44:13 51°20.42 2°50.184 345.9 11.4 334 18.2
2009-06-23 07:44:18 51°20.434 2°50.172 346.1 11.4 334 18.7
2009-06-23 07:44:23 51°20.448 2°50.161 346.2 11.4 334 18.7
2009-06-23 07:44:28 51°20.462 2°50.15 346.6 11.3 334 18.7
2009-06-23 07:44:33 51°20.477 2°50.139 347 11.4 334 19.2
2009-06-23 07:44:39 51°20.494 2°50.126 347 11.3 335 19.2
2009-06-23 07:44:43 51°20.505 2°50.118 347.2 11.4 335 19.4
2009-06-23 07:44:48 51°20.52 2°50.106 347.3 11.4 334 19.7
2009-06-23 07:44:53 51°20.534 2°50.096 347.4 11.4 335 19.9
2009-06-23 07:44:59 51°20.551 2°50.083 347.6 11.5 334 20.2
2009-06-23 07:45:03 51°20.562 2°50.074 347.2 11.4 335 20.1
2009-06-23 07:45:08 51°20.577 2°50.063 347.3 11.4 334 20.6
2009-06-23 07:45:13 51°20.591 2°50.052 347.6 11.4 335 20.7
2009-06-23 07:45:19 51°20.608 2°50.039 347.7 11.4 335 20.8
2009-06-23 07:45:23 51°20.62 2°50.031 347.8 11.5 335 20.8
2009-06-23 07:45:28 51°20.634 2°50.019 347.2 11.5 334 21.1
2009-06-23 07:45:33 51°20.649 2°50.008 347.4 11.5 334 21.4
2009-06-23 07:45:38 51°20.663 2°49.997 347.3 11.5 334 21.3
2009-06-23 07:45:43 51°20.677 2°49.986 346.7 11.5 334 21.4
2009-06-23 07:45:48 51°20.692 2°49.975 347.4 11.5 335 21.4
2009-06-23 07:45:53 51°20.706 2°49.964 347.7 11.6 334 21.5
2009-06-23 07:45:58 51°20.72 2°49.953 347.2 11.5 334 21.4
2009-06-23 07:46:03 51°20.734 2°49.942 347 11.6 334 21.8
2009-06-23 07:46:08 51°20.749 2°49.931 346.9 11.6 334 21.6
2009-06-23 07:46:13 51°20.763 2°49.919 346.9 11.6 334 21.9
2009-06-23 07:46:18 51°20.778 2°49.908 347 11.6 334 21.8
2009-06-23 07:46:23 51°20.792 2°49.897 347 11.6 334 21.8
2009-06-23 07:46:28 51°20.807 2°49.885 347 11.6 334 21.7
2009-06-23 07:46:33 51°20.821 2°49.874 347 11.6 334 22.3
2009-06-23 07:46:38 51°20.836 2°49.863 347.4 11.5 335 21.9
2009-06-23 07:46:43 51°20.85 2°49.852 347.9 11.6 335 22
2009-06-23 07:46:48 51°20.865 2°49.841 347.9 11.6 334 22.1
2009-06-23 07:46:54 51°20.882 2°49.827 347.4 11.6 334 21.9
2009-06-23 07:46:58 51°20.894 2°49.818 347.2 11.6 334 22.2
2009-06-23 07:47:04 51°20.911 2°49.805 347.1 11.6 334 22.1
2009-06-23 07:47:08 51°20.922 2°49.796 347.1 11.6 334 22.2
2009-06-23 07:47:13 51°20.937 2°49.785 347 11.6 334 22
2009-06-23 07:47:19 51°20.954 2°49.771 347.5 11.6 335 22.2
2009-06-23 07:47:23 51°20.966 2°49.762 347.5 11.6 334 22.3
2009-06-23 07:47:28 51°20.98 2°49.751 347.4 11.6 335 22
2009-06-23 07:47:33 51°20.995 2°49.74 347.7 11.6 335 22.2
2009-06-23 07:47:39 51°21.013 2°49.726 347.8 11.6 334 22.2
2009-06-23 07:47:43 51°21.024 2°49.718 347.7 11.6 335 22
2009-06-23 07:47:48 51°21.039 2°49.706 347.5 11.6 334 21.8
2009-06-23 07:47:53 51°21.053 2°49.695 347.2 11.6 335 22
2009-06-23 07:47:58 51°21.068 2°49.684 347.5 11.6 335 21.8
2009-06-23 07:48:03 51°21.082 2°49.673 347.7 11.6 334 21.8
2009-06-23 07:48:08 51°21.097 2°49.662 347.3 11.6 334 22
2009-06-23 07:48:13 51°21.111 2°49.65 347.2 11.6 334 21.5
2009-06-23 07:48:18 51°21.126 2°49.639 347.3 11.6 334 21.5
2009-06-23 07:48:23 51°21.141 2°49.628 347.5 11.6 334 21.6
2009-06-23 07:48:28 51°21.155 2°49.617 347.2 11.7 334 21.5
2009-06-23 07:48:33 51°21.17 2°49.605 347.2 11.6 335 21.4
2009-06-23 07:48:38 51°21.184 2°49.594 347.4 11.7 334 21.4
2009-06-23 07:48:43 51°21.199 2°49.583 347.5 11.6 334 21.1
2009-06-23 07:48:48 51°21.213 2°49.572 347.1 11.6 334 21.3
2009-06-23 07:48:53 51°21.228 2°49.561 347.3 11.6 335 21.3
2009-06-23 07:48:59 51°21.245 2°49.547 347.6 11.6 334 21.2
2009-06-23 07:49:03 51°21.257 2°49.538 347.3 11.6 334 21.2
2009-06-23 07:49:08 51°21.271 2°49.527 347.1 11.6 334 21.2
2009-06-23 07:49:13 51°21.286 2°49.516 347.3 11.6 335 21.1
2009-06-23 07:49:19 51°21.303 2°49.503 347.7 11.6 335 21.2
2009-06-23 07:49:23 51°21.315 2°49.494 347.5 11.7 334 21.2
2009-06-23 07:49:28 51°21.329 2°49.483 347.2 11.7 334 21
2009-06-23 07:49:33 51°21.344 2°49.472 347.3 11.7 334 20.9
2009-06-23 07:49:39 51°21.362 2°49.459 347.1 11.6 335 20.8
2009-06-23 07:49:43 51°21.373 2°49.45 347.3 11.6 336 20.8
2009-06-23 07:49:48 51°21.388 2°49.44 347.8 11.5 337 20.7
2009-06-23 07:49:53 51°21.403 2°49.43 348.5 11.5 336 20.4
2009-06-23 07:49:58 51°21.417 2°49.419 348.6 11.5 336 20.5
2009-06-23 07:50:03 51°21.432 2°49.409 348.2 11.5 335 20.7
2009-06-23 07:50:08 51°21.446 2°49.398 347.6 11.6 335 20.8
2009-06-23 07:50:12 51°21.458 2°49.389 347.4 11.6 335 20.8
2009-06-23 07:50:18 51°21.476 2°49.377 348 11.6 336 20.8
2009-06-23 07:50:23 51°21.49 2°49.366 348.4 11.6 335 21
2009-06-23 07:50:28 51°21.505 2°49.355 347.6 11.6 335 21
2009-06-23 07:50:32 51°21.516 2°49.346 347.2 11.6 335 20.9
2009-06-23 07:50:38 51°21.534 2°49.333 347.2 11.6 335 20.9
2009-06-23 07:50:43 51°21.549 2°49.322 347.7 11.6 336 21
2009-06-23 07:50:48 51°21.563 2°49.311 348.3 11.6 336 21
2009-06-23 07:50:54 51°21.581 2°49.299 348.7 11.7 336 21.1
2009-06-23 07:50:58 51°21.593 2°49.291 348.9 11.6 336 21.1
2009-06-23 07:51:03 51°21.608 2°49.28 348.8 11.7 336 21.3
2009-06-23 07:51:08 51°21.622 2°49.269 348.3 11.7 335 21.5
2009-06-23 07:51:12 51°21.634 2°49.261 347.7 11.7 335 21.4
2009-06-23 07:51:18 51°21.652 2°49.247 347.1 11.8 334 21.6
2009-06-23 07:51:23 51°21.667 2°49.236 347.1 11.6 336 21.4
2009-06-23 07:51:28 51°21.681 2°49.226 347.7 11.7 335 21.6
2009-06-23 07:51:33 51°21.696 2°49.215 347.5 11.7 335 21.9
2009-06-23 07:51:39 51°21.713 2°49.201 347.1 11.7 334 21.8
2009-06-23 07:51:43 51°21.725 2°49.193 347 11.7 336 22.2
2009-06-23 07:51:48 51°21.74 2°49.182 347.2 11.7 335 22.3
2009-06-23 07:51:53 51°21.755 2°49.17 346.6 11.7 335 22.3
2009-06-23 07:51:59 51°21.772 2°49.158 347 11.7 336 22.3
2009-06-23 07:52:03 51°21.784 2°49.149 348 11.7 336 22.2
2009-06-23 07:52:08 51°21.799 2°49.139 348 11.7 336 22.4
2009-06-23 07:52:13 51°21.814 2°49.128 348.5 11.7 337 22.4
2009-06-23 07:52:18 51°21.829 2°49.118 348.5 11.7 337 22.3
2009-06-23 07:52:23 51°21.844 2°49.108 348.5 11.7 336 22.3
2009-06-23 07:52:28 51°21.858 2°49.097 347.6 11.7 335 22.2
2009-06-23 07:52:33 51°21.873 2°49.086 347.5 11.7 336 22.2
2009-06-23 07:52:38 51°21.888 2°49.075 347.2 11.8 335 22.3
2009-06-23 07:52:43 51°21.903 2°49.064 347 11.7 336 22.2
2009-06-23 07:52:48 51°21.918 2°49.054 347.9 11.8 336 22.4
2009-06-23 07:52:52 51°21.93 2°49.045 347.9 11.7 336 22.3
2009-06-23 07:52:58 51°21.947 2°49.032 347.9 11.7 335 22.2
2009-06-23 07:53:03 51°21.962 2°49.021 347.1 11.8 335 22.4
2009-06-23 07:53:08 51°21.977 2°49.01 347.1 11.8 336 22.3
2009-06-23 07:53:13 51°21.992 2°48.999 347 11.8 335 22
2009-06-23 07:53:19 51°22.01 2°48.986 346.7 11.7 336 22.2
2009-06-23 07:53:23 51°22.022 2°48.977 347.3 11.8 335 22.5
2009-06-23 07:53:28 51°22.037 2°48.967 347.7 11.8 336 22.4
2009-06-23 07:53:33 51°22.052 2°48.956 347.7 11.8 337 22.4
2009-06-23 07:53:39 51°22.07 2°48.944 348.4 11.8 337 22.6
2009-06-23 07:53:43 51°22.082 2°48.936 348.4 11.7 337 22.4
2009-06-23 07:53:48 51°22.097 2°48.925 348.1 11.8 336 22.6
2009-06-23 07:53:53 51°22.111 2°48.914 347.6 11.8 336 22.6
2009-06-23 07:53:59 51°22.129 2°48.902 347.6 11.7 337 22.5
2009-06-23 07:54:03 51°22.142 2°48.894 348.5 11.8 336 22.7
2009-06-23 07:54:08 51°22.156 2°48.883 347.7 11.8 335 22.7
2009-06-23 07:54:13 51°22.171 2°48.872 347.3 11.8 336 22.6
2009-06-23 07:54:18 51°22.186 2°48.861 346.9 11.7 336 22.5
2009-06-23 07:54:23 51°22.201 2°48.85 346.8 11.7 335 22.6
2009-06-23 07:54:28 51°22.216 2°48.84 346.7 11.7 337 22.4
2009-06-23 07:54:32 51°22.227 2°48.832 346.8 11.6 338 22.6
2009-06-23 07:54:38 51°22.245 2°48.821 347.7 11.4 340 22.4
2009-06-23 07:54:43 51°22.26 2°48.811 347.5 11.4 337 21.9
2009-06-23 07:54:48 51°22.275 2°48.802 347.1 11.3 339 21.7
2009-06-23 07:54:53 51°22.289 2°48.793 347.8 11.2 339 21.6
2009-06-23 07:54:58 51°22.303 2°48.784 348.2 11.2 339 21.4
2009-06-23 07:55:03 51°22.318 2°48.776 348.4 11.1 339 21.2
2009-06-23 07:55:08 51°22.332 2°48.767 348.4 11.1 339 20.4
2009-06-23 07:55:13 51°22.347 2°48.757 347.3 11.1 337 19.2
2009-06-23 07:55:18 51°22.361 2°48.748 347 11.1 338 17.5
2009-06-23 07:55:23 51°22.375 2°48.738 346.7 11.1 336 18.7
2009-06-23 07:55:28 51°22.389 2°48.728 345.8 11 337 22
2009-06-23 07:55:33 51°22.403 2°48.72 346.6 10.9 339 23
2009-06-23 07:55:38 51°22.417 2°48.711 347.5 10.9 338 22.7
2009-06-23 07:55:43 51°22.431 2°48.701 347.1 10.9 338 22
2009-06-23 07:55:48 51°22.445 2°48.692 347 10.9 338 21.4
2009-06-23 07:55:53 51°22.459 2°48.683 347 10.9 338 20.7
2009-06-23 07:55:58 51°22.473 2°48.674 346.9 10.9 337 19.8
2009-06-23 07:56:03 51°22.487 2°48.665 346.4 10.8 338 18.6
2009-06-23 07:56:08 51°22.501 2°48.656 346.3 10.9 337 17.9
2009-06-23 07:56:13 51°22.515 2°48.646 346.6 10.8 339 16.9
2009-06-23 07:56:18 51°22.529 2°48.638 347.6 10.8 338 16.8
2009-06-23 07:56:23 51°22.542 2°48.629 347.5 10.8 338 16.3
2009-06-23 07:56:28 51°22.556 2°48.621 347.8 10.7 340 16.3
2009-06-23 07:56:33 51°22.57 2°48.612 348.6 10.8 338 14.3
2009-06-23 07:56:39 51°22.587 2°48.601 348.4 10.7 339 14.8
2009-06-23 07:56:43 51°22.598 2°48.594 347.9 10.7 339 16.3
2009-06-23 07:56:48 51°22.612 2°48.586 348.5 10.7 339 16.5
2009-06-23 07:56:53 51°22.626 2°48.577 348.5 10.7 338 16.6
2009-06-23 07:56:58 51°22.639 2°48.568 348.3 10.7 339 16.2
2009-06-23 07:57:03 51°22.653 2°48.56 348.6 10.7 339 13.6
2009-06-23 07:57:08 51°22.667 2°48.55 348.5 10.7 338 16.1
2009-06-23 07:57:13 51°22.681 2°48.541 348.2 10.7 338 17.1
2009-06-23 07:57:18 51°22.695 2°48.533 348.2 10.7 338 17.2
2009-06-23 07:57:23 51°22.709 2°48.524 348.6 10.7 339 17.4
2009-06-23 07:57:28 51°22.723 2°48.515 348.5 10.7 337 16.7
2009-06-23 07:57:33 51°22.737 2°48.506 348 10.7 338 15.8
2009-06-23 07:57:38 51°22.75 2°48.496 348 10.8 336 15.2
2009-06-23 07:57:43 51°22.764 2°48.486 347.2 10.8 336 15.5
2009-06-23 07:57:48 51°22.777 2°48.477 346.9 10.8 336 16.9
2009-06-23 07:57:53 51°22.791 2°48.468 347.3 10.7 338 17.7
2009-06-23 07:57:58 51°22.805 2°48.459 348.1 10.7 337 18.4
2009-06-23 07:58:03 51°22.818 2°48.449 347.9 10.8 336 19
2009-06-23 07:58:08 51°22.832 2°48.439 346.9 10.8 335 18.7
2009-06-23 07:58:13 51°22.845 2°48.43 346.7 10.7 336 19.1
2009-06-23 07:58:19 51°22.861 2°48.417 346.4 10.8 335 19.3
2009-06-23 07:58:23 51°22.872 2°48.409 345.7 10.8 334 19.1
2009-06-23 07:58:28 51°22.886 2°48.399 345.6 10.8 334 19.1
2009-06-23 07:58:33 51°22.899 2°48.389 345.9 10.8 335 19.2
2009-06-23 07:58:39 51°22.916 2°48.376 346.4 10.9 334 18.9
2009-06-23 07:58:43 51°22.926 2°48.368 346.4 10.9 335 18.4
2009-06-23 07:58:48 51°22.94 2°48.357 346.1 10.9 333 17.5
2009-06-23 07:58:53 51°22.953 2°48.346 345.6 10.8 334 16.5
2009-06-23 07:58:59 51°22.969 2°48.333 345.7 10.9 334 18
2009-06-23 07:59:03 51°22.98 2°48.325 346.3 10.8 335 18.6
2009-06-23 07:59:08 51°22.994 2°48.315 347.3 10.8 335 19.3
2009-06-23 07:59:13 51°23.008 2°48.305 347 10.9 334 19.2
2009-06-23 07:59:18 51°23.021 2°48.295 346.7 10.9 335 19.3
2009-06-23 07:59:23 51°23.035 2°48.284 346.5 10.9 334 18.9
2009-06-23 07:59:28 51°23.048 2°48.273 346.3 10.9 334 18.9
2009-06-23 07:59:33 51°23.062 2°48.262 345.9 11 333 19
2009-06-23 07:59:38 51°23.076 2°48.253 346.3 10.8 336 19.7
2009-06-23 07:59:43 51°23.089 2°48.242 347 10.9 335 20.6
2009-06-23 07:59:48 51°23.103 2°48.233 347.9 10.9 337 20
2009-06-23 07:59:53 51°23.117 2°48.222 348.4 10.9 335 19.1
2009-06-23 07:59:59 51°23.133 2°48.21 347.4 10.9 335 19.9
2009-06-23 08:00:03 51°23.144 2°48.202 347.5 10.9 335 19.9
2009-06-23 08:00:08 51°23.158 2°48.192 348 10.9 336 20.1
2009-06-23 08:00:13 51°23.172 2°48.182 348.1 10.9 336 20.3
2009-06-23 08:00:19 51°23.188 2°48.169 347.7 11 334 20.5
2009-06-23 08:00:23 51°23.199 2°48.161 347.3 11 335 20.5
2009-06-23 08:00:28 51°23.213 2°48.15 347.1 11 334 18.9
2009-06-23 08:00:33 51°23.227 2°48.14 346.5 11.1 334 19.3
2009-06-23 08:00:39 51°23.244 2°48.126 346.4 11.1 334 19.8
2009-06-23 08:00:43 51°23.255 2°48.118 347 11 335 20
2009-06-23 08:00:48 51°23.268 2°48.108 347.7 11 335 20.1
2009-06-23 08:00:53 51°23.282 2°48.098 348.1 11 336 20.2
2009-06-23 08:00:59 51°23.299 2°48.086 348.7 11.1 336 20.3
2009-06-23 08:01:03 51°23.31 2°48.078 348.5 11 336 20.2
2009-06-23 08:01:08 51°23.324 2°48.067 347.7 11.1 335 19.5
2009-06-23 08:01:13 51°23.338 2°48.056 347.1 11.1 334 18.9
2009-06-23 08:01:18 51°23.352 2°48.046 346.9 11.1 334 18.4
2009-06-23 08:01:23 51°23.366 2°48.035 346.5 11.1 334 18.8
2009-06-23 08:01:28 51°23.38 2°48.024 346.6 11.1 334 19.5
2009-06-23 08:01:33 51°23.393 2°48.013 346.8 11.1 334 20
2009-06-23 08:01:38 51°23.407 2°48.003 346.5 11.1 334 20.1
2009-06-23 08:01:43 51°23.421 2°47.992 346.8 11.1 334 19.4
2009-06-23 08:01:48 51°23.435 2°47.981 347.2 11.1 335 18.5
2009-06-23 08:01:53 51°23.449 2°47.971 347.3 11.1 334 18.7
2009-06-23 08:01:58 51°23.463 2°47.96 346.9 11.1 334 18.7
2009-06-23 08:02:03 51°23.477 2°47.949 346.4 11.2 333 18.7
2009-06-23 08:02:08 51°23.49 2°47.937 346 11.1 333 18.4
2009-06-23 08:02:13 51°23.504 2°47.926 346.3 11.2 334 17.9
2009-06-23 08:02:18 51°23.518 2°47.915 346.5 11.2 334 16.9
2009-06-23 08:02:23 51°23.532 2°47.905 347.3 11.1 334 16.5
2009-06-23 08:02:28 51°23.546 2°47.894 347.7 11.2 334 17.9
2009-06-23 08:02:33 51°23.56 2°47.883 347.3 11.2 334 19
2009-06-23 08:02:38 51°23.574 2°47.872 347.2 11.2 334 19.7
2009-06-23 08:02:43 51°23.588 2°47.861 347 11.2 333 19.9
2009-06-23 08:02:48 51°23.602 2°47.85 346.7 11.2 334 20.3
2009-06-23 08:02:53 51°23.616 2°47.839 346.7 11.2 334 20.2
2009-06-23 08:02:58 51°23.63 2°47.829 346.7 11.2 335 20.5
2009-06-23 08:03:03 51°23.644 2°47.818 346.8 11.2 334 20.4
2009-06-23 08:03:08 51°23.658 2°47.807 346.9 11.2 335 20.8
2009-06-23 08:03:13 51°23.672 2°47.796 346.8 11.2 334 20.6
2009-06-23 08:03:19 51°23.688 2°47.783 346.5 11.2 334 21.1
2009-06-23 08:03:23 51°23.7 2°47.775 346.5 11.2 334 20.8
2009-06-23 08:03:28 51°23.714 2°47.764 346.7 11.2 334 21.1
2009-06-23 08:03:33 51°23.728 2°47.753 346.4 11.2 334 21.1
2009-06-23 08:03:39 51°23.745 2°47.74 346.8 11.1 335 21.3
2009-06-23 08:03:43 51°23.756 2°47.732 347.6 11.2 335 21.4
2009-06-23 08:03:48 51°23.77 2°47.721 347.2 11.2 335 21.6
2009-06-23 08:03:53 51°23.784 2°47.711 347.2 11.2 336 21.4
2009-06-23 08:03:58 51°23.798 2°47.701 347.5 11.2 335 21.1
2009-06-23 08:04:03 51°23.812 2°47.69 347.3 11.2 334 20.1
2009-06-23 08:04:08 51°23.826 2°47.679 347 11.2 334 19.1
2009-06-23 08:04:13 51°23.84 2°47.668 346.7 11.3 334 17.6
2009-06-23 08:04:18 51°23.854 2°47.658 347.1 11.2 335 18.9
2009-06-23 08:04:23 51°23.868 2°47.647 347.7 11.3 335 20.2
2009-06-23 08:04:28 51°23.882 2°47.637 347.6 11.2 336 21
2009-06-23 08:04:33 51°23.896 2°47.626 347.7 11.2 335 21.2
2009-06-23 08:04:38 51°23.911 2°47.616 348.1 11.2 336 21.4
2009-06-23 08:04:43 51°23.925 2°47.605 347.7 11.3 334 22.5
2009-06-23 08:04:48 51°23.939 2°47.595 347.2 11.2 336 21.9
2009-06-23 08:04:53 51°23.953 2°47.585 348.2 11.2 336 22
2009-06-23 08:04:59 51°23.97 2°47.573 347.6 11.2 336 22.7
2009-06-23 08:05:03 51°23.982 2°47.565 347.1 11.2 335 22.8
2009-06-23 08:05:08 51°23.996 2°47.554 347.1 11.2 335 22.7
2009-06-23 08:05:13 51°24.01 2°47.543 346.9 11.2 334 23.2
2009-06-23 08:05:19 51°24.027 2°47.531 346.9 11.2 335 23.4
2009-06-23 08:05:23 51°24.038 2°47.522 346.8 11.2 335 23.2
2009-06-23 08:05:28 51°24.052 2°47.512 346.9 11.2 336 23
2009-06-23 08:05:33 51°24.066 2°47.502 347.1 11.2 335 23.2
2009-06-23 08:05:39 51°24.083 2°47.489 346.8 11.2 334 23.8
2009-06-23 08:05:43 51°24.094 2°47.481 346.6 11.2 335 23.5
2009-06-23 08:05:48 51°24.108 2°47.47 346.6 11.2 335 23.8
2009-06-23 08:05:53 51°24.123 2°47.459 346.5 11.2 335 24.1
2009-06-23 08:05:58 51°24.137 2°47.448 346.6 11.2 334 24.5
2009-06-23 08:06:03 51°24.151 2°47.437 346.3 11.3 334 24.7
2009-06-23 08:06:08 51°24.165 2°47.426 346.3 11.3 334 24.7
2009-06-23 08:06:13 51°24.179 2°47.415 346.6 11.3 335 24.7
2009-06-23 08:06:18 51°24.193 2°47.404 346.8 11.3 334 24.5
2009-06-23 08:06:23 51°24.207 2°47.394 346.3 11.3 334 24.1
2009-06-23 08:06:28 51°24.221 2°47.382 346.3 11.3 334 25
2009-06-23 08:06:33 51°24.235 2°47.372 346.8 11.2 335 25.3
2009-06-23 08:06:39 51°24.252 2°47.359 346.8 11.3 334 25.8
2009-06-23 08:06:43 51°24.264 2°47.35 346.9 11.3 334 26.1
2009-06-23 08:06:48 51°24.278 2°47.339 347 11.3 335 25.6
2009-06-23 08:06:53 51°24.292 2°47.328 347.2 11.3 334 25.8
2009-06-23 08:06:59 51°24.309 2°47.315 347.1 11.3 335 25.7
2009-06-23 08:07:03 51°24.32 2°47.306 347.1 11.3 334 25.9
2009-06-23 08:07:08 51°24.334 2°47.295 346.7 11.3 334 27
2009-06-23 08:07:13 51°24.348 2°47.284 346.9 11.3 334 27.5
2009-06-23 08:07:19 51°24.366 2°47.272 347.3 11.3 335 27.7
2009-06-23 08:07:23 51°24.377 2°47.263 347.7 11.1 334 28
2009-06-23 08:07:28 51°24.39 2°47.253 347.7 11 334 28.5
2009-06-23 08:07:33 51°24.404 2°47.242 347.2 11 334 28.6
2009-06-23 08:07:39 51°24.421 2°47.229 347.3 11.2 334 28.8
2009-06-23 08:07:43 51°24.432 2°47.22 347.2 11.3 334 28.4
2009-06-23 08:07:48 51°24.446 2°47.21 347.2 11.3 335 27.9
2009-06-23 08:07:53 51°24.46 2°47.199 348 11.3 335 28.1
2009-06-23 08:07:58 51°24.474 2°47.189 348.6 11.3 336 28.8
2009-06-23 08:08:03 51°24.489 2°47.178 349 11.3 336 29.4
2009-06-23 08:08:08 51°24.503 2°47.167 348.4 11.4 334 29.8
2009-06-23 08:08:12 51°24.514 2°47.159 347.9 11.4 335 30.2
2009-06-23 08:08:18 51°24.531 2°47.145 347.8 11.5 333 30
2009-06-23 08:08:23 51°24.546 2°47.135 347.3 11.4 335 29.8
2009-06-23 08:08:28 51°24.56 2°47.124 347.7 11.4 335 30.1
2009-06-23 08:08:33 51°24.575 2°47.114 348.4 11.4 336 29.7
2009-06-23 08:08:38 51°24.589 2°47.103 348.6 11.5 335 29
2009-06-23 08:08:43 51°24.604 2°47.093 348.9 11.5 336 29.5
2009-06-23 08:08:48 51°24.618 2°47.082 349.1 11.5 336 29.7
2009-06-23 08:08:53 51°24.633 2°47.072 349.3 11.6 335 30
2009-06-23 08:08:58 51°24.647 2°47.061 348.5 11.6 334 29.9
2009-06-23 08:09:03 51°24.662 2°47.049 347.9 11.6 334 29.6
2009-06-23 08:09:08 51°24.676 2°47.038 347.4 11.6 334 28.9
2009-06-23 08:09:13 51°24.69 2°47.027 346.7 11.6 333 28.9
2009-06-23 08:09:18 51°24.705 2°47.015 346.6 11.6 334 29
2009-06-23 08:09:23 51°24.719 2°47.004 346.6 11.5 333 28.2
2009-06-23 08:09:28 51°24.734 2°46.992 346.2 11.6 333 28.1
2009-06-23 08:09:33 51°24.748 2°46.981 346.4 11.6 334 27.8
2009-06-23 08:09:38 51°24.762 2°46.969 346.6 11.6 333 27.6
2009-06-23 08:09:43 51°24.777 2°46.958 346.4 11.6 334 27.4
2009-06-23 08:09:48 51°24.791 2°46.947 347 11.6 335 26.9
2009-06-23 08:09:54 51°24.808 2°46.934 347.4 11.6 335 26.7
2009-06-23 08:09:58 51°24.82 2°46.925 348 11.6 336 26.6
2009-06-23 08:10:03 51°24.835 2°46.914 348.5 11.5 335 26.6
2009-06-23 08:10:08 51°24.849 2°46.903 348.7 11.6 334 26.8
2009-06-23 08:10:13 51°24.864 2°46.892 347.7 11.6 334 26.6
2009-06-23 08:10:19 51°24.881 2°46.879 347.4 11.6 334 26.4
2009-06-23 08:10:23 51°24.893 2°46.869 347.3 11.6 334 25.9
2009-06-23 08:10:28 51°24.907 2°46.859 347.9 11.5 336 25.1
2009-06-23 08:10:33 51°24.922 2°46.848 348.3 11.5 335 24.6
2009-06-23 08:10:38 51°24.936 2°46.838 348.7 11.5 336 24.3
2009-06-23 08:10:43 51°24.951 2°46.827 348.9 11.5 336 24.2
2009-06-23 08:10:48 51°24.966 2°46.817 348.8 11.4 336 24
2009-06-23 08:10:53 51°24.98 2°46.806 349 11.5 336 24.3
2009-06-23 08:10:58 51°24.994 2°46.796 349 11.4 336 23.9
2009-06-23 08:11:03 51°25.009 2°46.786 349 11.4 336 23.9
2009-06-23 08:11:08 51°25.023 2°46.775 348.2 11.4 334 24.2
2009-06-23 08:11:13 51°25.038 2°46.764 347.7 11.4 336 24
2009-06-23 08:11:18 51°25.052 2°46.754 348.1 11.4 335 24.1
2009-06-23 08:11:23 51°25.066 2°46.743 348.5 11.4 335 24.3
2009-06-23 08:11:28 51°25.08 2°46.733 348.4 11.4 336 24
2009-06-23 08:11:32 51°25.092 2°46.724 348.5 11.4 336 24.1
2009-06-23 08:11:38 51°25.109 2°46.712 348.6 11.4 336 24
2009-06-23 08:11:43 51°25.124 2°46.701 348.5 11.4 335 23.9
2009-06-23 08:11:48 51°25.138 2°46.691 348.4 11.4 335 24.1
2009-06-23 08:11:53 51°25.152 2°46.68 348.2 11.3 335 24.1
2009-06-23 08:11:59 51°25.17 2°46.667 348 11.4 336 24.4
2009-06-23 08:12:03 51°25.181 2°46.659 348.1 11.3 336 24.4
2009-06-23 08:12:08 51°25.195 2°46.648 348.3 11.4 335 24.4
2009-06-23 08:12:13 51°25.209 2°46.637 347.2 11.4 334 24.5
2009-06-23 08:12:19 51°25.226 2°46.625 347 11.3 335 24.3
2009-06-23 08:12:23 51°25.238 2°46.616 347.1 11.3 335 24.4
2009-06-23 08:12:28 51°25.252 2°46.606 347.6 11.3 336 24.4
2009-06-23 08:12:33 51°25.266 2°46.594 347.3 11.4 333 24.3
2009-06-23 08:12:39 51°25.283 2°46.581 346.5 11.3 335 24.2
2009-06-23 08:12:43 51°25.294 2°46.572 346.6 11.3 334 23.9
2009-06-23 08:12:48 51°25.309 2°46.562 347 11.3 335 23.5
2009-06-23 08:12:53 51°25.323 2°46.551 347.3 11.3 335 24
2009-06-23 08:12:58 51°25.337 2°46.54 347.7 11.3 335 24.3
2009-06-23 08:13:03 51°25.352 2°46.53 347.9 11.3 336 24.4
2009-06-23 08:13:08 51°25.366 2°46.519 348 11.3 336 24.4
2009-06-23 08:13:13 51°25.38 2°46.509 348.1 11.3 335 24.4
2009-06-23 08:13:18 51°25.394 2°46.498 347.8 11.4 334 24.6